Time;durP1;ratioP1;P1;durP2;ratioP2;P2;SDS_P1;SDS_P2;PMS_P1;PMS_P2;Temp;Humidity;BMP_temperature;BMP_pressure;BME280_temperature;BME280_humidity;BME280_pressure;Samples;Min_cycle;Max_cycle;Signal;HPM_P1;HPM_P2
2020/12/23 00:02:00;;;;;;;30.27;16.33;;;12.70;99.90;;;;;;4953060;29;20412;-83
2020/12/23 00:04:27;;;;;;;28.33;16.27;;;12.70;99.90;;;;;;4954621;29;20055;-83
2020/12/23 00:06:54;;;;;;;31.45;15.65;;;12.70;99.90;;;;;;4951235;29;20058;-82
2020/12/23 00:09:20;;;;;;;31.95;17.20;;;12.60;99.90;;;;;;4944934;29;20059;-82
2020/12/23 00:11:52;;;;;;;32.55;17.70;;;12.60;99.90;;;;;;4948148;29;20058;-82
2020/12/23 00:14:18;;;;;;;24.02;15.57;;;12.60;99.90;;;;;;4946647;29;20047;-83
2020/12/23 00:16:46;;;;;;;28.13;16.80;;;12.70;99.90;;;;;;4948606;29;20047;-82
2020/12/23 00:19:12;;;;;;;30.88;16.73;;;12.70;99.90;;;;;;4944423;29;20123;-83
2020/12/23 00:21:38;;;;;;;31.38;16.25;;;12.70;99.90;;;;;;4944447;29;20079;-83
2020/12/23 00:24:05;;;;;;;28.15;14.85;;;12.80;99.90;;;;;;4949123;29;20075;-83
2020/12/23 00:26:31;;;;;;;28.38;14.80;;;12.80;99.90;;;;;;4961334;28;20078;-83
2020/12/23 00:28:57;;;;;;;28.45;15.13;;;12.80;99.90;;;;;;4961793;29;20050;-81
2020/12/23 00:31:24;;;;;;;26.08;15.70;;;12.90;99.90;;;;;;4952918;29;20116;-81
2020/12/23 00:33:53;;;;;;;29.15;16.05;;;12.90;99.90;;;;;;4961269;29;20512;-79
2020/12/23 00:36:19;;;;;;;27.77;15.48;;;12.90;99.90;;;;;;4942198;29;20052;-81
2020/12/23 00:38:46;;;;;;;28.73;15.13;;;12.90;99.90;;;;;;4942459;29;20107;-82
2020/12/23 00:41:12;;;;;;;30.25;15.40;;;12.90;99.90;;;;;;4941497;29;20560;-80
2020/12/23 00:43:38;;;;;;;28.98;15.25;;;12.90;99.90;;;;;;4952675;29;20126;-80
2020/12/23 00:46:10;;;;;;;29.23;15.55;;;12.90;99.90;;;;;;4951040;29;20075;-81
2020/12/23 00:48:36;;;;;;;32.20;14.50;;;12.90;99.90;;;;;;4947449;29;20055;-79
2020/12/23 00:51:10;;;;;;;30.40;16.00;;;12.80;99.90;;;;;;4958655;29;20134;-79
2020/12/23 00:53:37;;;;;;;29.10;15.82;;;12.90;99.90;;;;;;4956909;29;20091;-83
2020/12/23 00:56:03;;;;;;;29.40;14.82;;;12.90;99.90;;;;;;4950743;29;20111;-81
2020/12/23 00:58:30;;;;;;;31.80;15.88;;;12.90;99.90;;;;;;4949920;29;20046;-79
2020/12/23 01:00:57;;;;;;;30.17;15.70;;;12.90;99.90;;;;;;4946191;29;20191;-80
2020/12/23 01:03:23;;;;;;;27.58;15.30;;;12.90;99.90;;;;;;4939381;29;20178;-80
2020/12/23 01:05:50;;;;;;;30.10;15.25;;;12.90;99.90;;;;;;4938063;29;20179;-80
2020/12/23 01:08:17;;;;;;;27.17;14.55;;;12.80;99.90;;;;;;4938875;29;20067;-80
2020/12/23 01:10:45;;;;;;;31.00;16.73;;;12.80;99.90;;;;;;4938033;29;20138;-79
2020/12/23 01:13:12;;;;;;;28.02;15.98;;;12.70;99.90;;;;;;4938846;29;20075;-80
2020/12/23 01:15:38;;;;;;;31.85;16.17;;;12.70;99.90;;;;;;4939134;29;20095;-80
2020/12/23 01:18:06;;;;;;;28.23;16.42;;;12.60;99.90;;;;;;4939372;29;20091;-80
2020/12/23 01:20:33;;;;;;;34.53;16.90;;;12.50;99.90;;;;;;4940188;29;20090;-80
2020/12/23 01:22:59;;;;;;;27.83;15.98;;;12.50;99.90;;;;;;4938798;29;20094;-79
2020/12/23 01:25:29;;;;;;;32.33;16.15;;;12.50;99.90;;;;;;4939238;29;20094;-80
2020/12/23 01:27:55;;;;;;;27.52;15.80;;;12.40;99.90;;;;;;4938797;29;20043;-80
2020/12/23 01:30:22;;;;;;;33.40;17.92;;;12.40;99.90;;;;;;4938398;29;20571;-80
2020/12/23 01:32:48;;;;;;;27.80;17.30;;;12.50;99.90;;;;;;4937724;29;20183;-81
2020/12/23 01:35:14;;;;;;;29.33;16.80;;;12.50;99.90;;;;;;4938361;29;20130;-80
2020/12/23 01:37:41;;;;;;;26.38;15.68;;;12.50;99.90;;;;;;4937550;29;20134;-80
2020/12/23 01:40:07;;;;;;;27.95;15.93;;;12.50;99.90;;;;;;4938214;29;20138;-80
2020/12/23 01:42:35;;;;;;;23.65;15.77;;;12.50;99.90;;;;;;4937183;29;20488;-80
2020/12/23 01:45:03;;;;;;;29.17;16.25;;;12.50;99.90;;;;;;4937316;29;20083;-79
2020/12/23 01:47:31;;;;;;;26.98;16.20;;;12.50;99.90;;;;;;4936965;29;20139;-78
2020/12/23 01:49:58;;;;;;;25.75;15.05;;;12.50;99.90;;;;;;4936967;29;20130;-80
2020/12/23 01:52:25;;;;;;;23.25;14.90;;;12.50;99.90;;;;;;4938158;29;20134;-80
2020/12/23 01:54:53;;;;;;;21.75;13.93;;;12.50;99.90;;;;;;4940113;29;20083;-82
2020/12/23 01:57:20;;;;;;;20.48;13.98;;;12.50;99.90;;;;;;4939970;29;20094;-81
2020/12/23 01:59:48;;;;;;;20.88;13.57;;;12.60;99.90;;;;;;4939276;29;20474;-81
2020/12/23 02:02:28;;;;;;;20.27;13.13;;;12.50;99.90;;;;;;4938766;29;20094;-80
2020/12/23 02:04:55;;;;;;;19.42;12.55;;;12.50;99.90;;;;;;4938593;29;20083;-80
2020/12/23 02:07:23;;;;;;;24.45;13.05;;;12.60;99.90;;;;;;4939213;29;20083;-80
2020/12/23 02:09:51;;;;;;;18.67;12.55;;;12.60;99.90;;;;;;4938600;29;20090;-81
2020/12/23 02:12:18;;;;;;;18.00;11.75;;;12.60;99.90;;;;;;4940435;29;20094;-82
2020/12/23 02:14:44;;;;;;;16.63;11.45;;;12.60;99.90;;;;;;4941383;29;20051;-81
2020/12/23 02:17:12;;;;;;;15.57;10.32;;;12.60;99.90;;;;;;4940859;29;20082;-82
2020/12/23 02:19:49;;;;;;;16.08;10.38;;;12.60;99.90;;;;;;4943393;29;20059;-80
2020/12/23 02:22:17;;;;;;;15.45;10.23;;;12.60;99.90;;;;;;4941922;29;20536;-81
2020/12/23 02:24:45;;;;;;;13.27;9.80;;;12.60;99.90;;;;;;4944402;29;20051;-80
2020/12/23 02:27:12;;;;;;;13.88;9.93;;;12.60;99.90;;;;;;4941260;29;20051;-81
2020/12/23 02:29:42;;;;;;;13.40;9.60;;;12.60;99.90;;;;;;4938132;29;20075;-79
2020/12/23 02:32:08;;;;;;;11.30;8.25;;;12.50;99.90;;;;;;4937758;29;20079;-79
2020/12/23 02:34:34;;;;;;;11.95;8.00;;;12.50;99.90;;;;;;4938171;29;20150;-81
2020/12/23 02:37:01;;;;;;;9.93;7.68;;;12.40;99.90;;;;;;4938306;29;20075;-81
2020/12/23 02:39:27;;;;;;;10.77;7.57;;;12.30;99.90;;;;;;4937777;29;20476;-79
2020/12/23 02:41:56;;;;;;;13.20;7.22;;;12.30;99.90;;;;;;4994240;23;20093;-81
2020/12/23 02:44:23;;;;;;;10.68;7.00;;;12.30;99.90;;;;;;4998406;28;20133;-82
2020/12/23 02:46:57;;;;;;;11.23;6.63;;;12.40;99.90;;;;;;5000489;28;20081;-81
2020/12/23 02:49:24;;;;;;;9.02;6.50;;;12.40;99.90;;;;;;4999962;28;20074;-81
2020/12/23 02:51:50;;;;;;;10.35;6.50;;;12.40;99.90;;;;;;4999371;28;20074;-81
2020/12/23 02:54:17;;;;;;;7.93;5.82;;;12.30;99.90;;;;;;5000082;28;20084;-81
2020/12/23 02:56:43;;;;;;;8.88;5.80;;;12.40;99.90;;;;;;5000491;28;20602;-82
2020/12/23 02:59:11;;;;;;;8.70;5.63;;;12.40;99.90;;;;;;5000585;28;20110;-82
2020/12/23 03:01:37;;;;;;;8.85;5.80;;;12.40;99.90;;;;;;4999448;28;20129;-82
2020/12/23 03:04:04;;;;;;;7.47;5.40;;;12.50;99.90;;;;;;5004058;28;20089;-81
2020/12/23 03:06:30;;;;;;;6.88;5.30;;;12.50;99.90;;;;;;5003401;28;20350;-82
2020/12/23 03:08:57;;;;;;;7.22;4.90;;;12.50;99.90;;;;;;5004099;28;20085;-82
2020/12/23 03:11:23;;;;;;;7.18;4.70;;;12.50;99.90;;;;;;5002545;28;20127;-81
2020/12/23 03:13:50;;;;;;;6.63;4.97;;;12.60;99.90;;;;;;5003826;28;20085;-82
2020/12/23 03:16:17;;;;;;;6.65;4.68;;;12.60;99.90;;;;;;5003279;28;20096;-81
2020/12/23 03:18:45;;;;;;;7.78;4.80;;;12.60;99.90;;;;;;5002507;28;20050;-82
2020/12/23 03:21:11;;;;;;;7.13;4.40;;;12.50;99.90;;;;;;5003735;28;20050;-82
2020/12/23 03:23:38;;;;;;;7.15;4.38;;;12.50;99.90;;;;;;5003843;28;20092;-82
2020/12/23 03:26:05;;;;;;;6.20;4.38;;;12.40;99.90;;;;;;5004068;28;20054;-81
2020/12/23 03:28:32;;;;;;;6.60;4.63;;;12.50;99.90;;;;;;5002211;28;20150;-81
2020/12/23 03:30:58;;;;;;;6.32;4.47;;;12.50;99.90;;;;;;5003600;28;20086;-81
2020/12/23 03:33:25;;;;;;;6.05;4.43;;;12.50;99.90;;;;;;5000250;28;20066;-81
2020/12/23 03:35:52;;;;;;;6.43;4.35;;;12.50;99.90;;;;;;5001669;28;20085;-82
2020/12/23 03:38:18;;;;;;;12.73;4.78;;;12.50;99.90;;;;;;5003569;28;20102;-81
2020/12/23 03:40:45;;;;;;;8.38;4.20;;;12.50;99.90;;;;;;5003573;28;20078;-81
2020/12/23 03:43:11;;;;;;;9.27;4.50;;;12.50;99.90;;;;;;5002276;28;20050;-83
2020/12/23 03:45:38;;;;;;;12.80;5.18;;;12.50;99.90;;;;;;5001558;28;20050;-82
2020/12/23 03:48:04;;;;;;;7.28;5.30;;;12.60;99.90;;;;;;5001290;28;20090;-82
2020/12/23 03:50:32;;;;;;;7.25;4.97;;;12.50;99.90;;;;;;5000333;28;20110;-82
2020/12/23 03:52:59;;;;;;;5.80;4.75;;;12.50;99.90;;;;;;5000891;28;20057;-82
2020/12/23 03:55:25;;;;;;;7.30;5.15;;;12.50;99.90;;;;;;5001545;28;20137;-81
2020/12/23 03:57:52;;;;;;;8.70;5.30;;;12.40;99.90;;;;;;5005686;28;20082;-81
2020/12/23 04:00:18;;;;;;;9.13;5.93;;;12.50;99.90;;;;;;5003831;28;20085;-81
2020/12/23 04:02:45;;;;;;;6.57;4.78;;;12.40;99.90;;;;;;5003428;28;20078;-82
2020/12/23 04:05:11;;;;;;;9.13;4.95;;;12.40;99.90;;;;;;5002339;28;20093;-81
2020/12/23 04:07:38;;;;;;;8.65;5.18;;;12.30;99.90;;;;;;5001221;28;20129;-81
2020/12/23 04:10:06;;;;;;;8.63;4.90;;;12.30;99.90;;;;;;5003028;28;20100;-83
2020/12/23 04:12:32;;;;;;;7.47;4.68;;;12.20;99.90;;;;;;5001812;28;20086;-81
2020/12/23 04:14:59;;;;;;;6.90;4.82;;;12.20;99.90;;;;;;5005211;28;20082;-82
2020/12/23 04:17:25;;;;;;;7.45;4.40;;;12.20;99.90;;;;;;5008989;28;20078;-81
2020/12/23 04:19:51;;;;;;;7.07;5.50;;;12.20;99.90;;;;;;5004870;28;20081;-80
2020/12/23 04:22:18;;;;;;;8.02;4.40;;;12.20;99.90;;;;;;5003821;28;20086;-81
2020/12/23 04:24:45;;;;;;;8.80;4.45;;;12.10;99.90;;;;;;5002860;28;20053;-82
2020/12/23 04:27:11;;;;;;;8.00;4.47;;;12.10;99.90;;;;;;5003762;28;20070;-80
2020/12/23 04:29:38;;;;;;;8.68;4.90;;;12.20;99.90;;;;;;5003664;28;20498;-81
2020/12/23 04:32:04;;;;;;;8.48;4.78;;;12.20;99.90;;;;;;5004141;28;20485;-80
2020/12/23 04:34:31;;;;;;;7.97;5.00;;;12.20;99.90;;;;;;5004657;28;20096;-80
2020/12/23 04:36:57;;;;;;;8.65;4.60;;;12.20;99.90;;;;;;5003644;28;20081;-80
2020/12/23 04:39:23;;;;;;;9.95;4.97;;;12.10;99.90;;;;;;5003583;28;20053;-80
2020/12/23 04:41:50;;;;;;;7.50;4.57;;;12.10;99.90;;;;;;5002717;28;20141;-81
2020/12/23 04:44:17;;;;;;;9.68;4.78;;;12.10;99.90;;;;;;5000441;28;20144;-80
2020/12/23 04:46:44;;;;;;;11.05;5.10;;;12.00;99.90;;;;;;5003057;28;20553;-80
2020/12/23 04:49:11;;;;;;;7.43;5.13;;;12.00;99.90;;;;;;5002655;28;20106;-81
2020/12/23 04:51:39;;;;;;;9.07;5.80;;;12.00;99.90;;;;;;5004753;28;20125;-81
2020/12/23 04:54:08;;;;;;;8.20;5.55;;;12.10;99.90;;;;;;5006303;28;20094;-80
2020/12/23 04:56:35;;;;;;;9.10;5.88;;;12.10;99.90;;;;;;5006359;28;20057;-80
2020/12/23 04:59:04;;;;;;;11.25;7.28;;;12.00;99.90;;;;;;5006162;28;20054;-81
2020/12/23 05:01:31;;;;;;;14.65;10.40;;;12.00;99.90;;;;;;5013634;28;20502;-80
2020/12/23 05:03:57;;;;;;;19.42;16.38;;;12.00;99.90;;;;;;5014997;28;20058;-81
2020/12/23 05:06:24;;;;;;;10.43;6.93;;;12.10;99.90;;;;;;5014853;28;20541;-80
2020/12/23 05:08:51;;;;;;;10.00;6.35;;;12.10;99.90;;;;;;5012275;28;20142;-81
2020/12/23 05:11:18;;;;;;;10.45;6.22;;;12.10;99.90;;;;;;5011384;28;20046;-80
2020/12/23 05:13:45;;;;;;;11.10;8.05;;;12.10;99.90;;;;;;5014410;28;20137;-81
2020/12/23 05:16:21;;;;;;;11.60;8.98;;;12.20;99.90;;;;;;5011751;28;20054;-81
2020/12/23 05:18:47;;;;;;;9.77;8.27;;;12.20;99.90;;;;;;5012681;28;20069;-81
2020/12/23 05:21:17;;;;;;;11.02;6.55;;;12.20;99.90;;;;;;5010500;28;20050;-79
2020/12/23 05:23:44;;;;;;;8.60;6.70;;;12.20;99.90;;;;;;5011614;28;20050;-81
2020/12/23 05:26:11;;;;;;;9.80;7.50;;;12.20;99.90;;;;;;5012263;28;20069;-81
2020/12/23 05:28:38;;;;;;;10.18;6.53;;;12.20;99.90;;;;;;5012306;28;20081;-80
2020/12/23 05:31:06;;;;;;;8.30;6.18;;;12.30;99.90;;;;;;5005141;28;20051;-80
2020/12/23 05:33:34;;;;;;;14.88;9.88;;;12.30;99.90;;;;;;5001141;28;20424;-81
2020/12/23 05:36:02;;;;;;;14.40;10.77;;;12.30;99.90;;;;;;5001845;28;20518;-81
2020/12/23 05:38:30;;;;;;;11.80;6.88;;;12.30;99.90;;;;;;5000415;28;20558;-81
2020/12/23 05:40:58;;;;;;;10.10;7.63;;;12.30;99.90;;;;;;5000438;28;20057;-79
2020/12/23 05:43:26;;;;;;;10.35;7.47;;;12.30;99.90;;;;;;4999740;28;20050;-80
2020/12/23 05:45:54;;;;;;;11.52;7.40;;;12.30;99.90;;;;;;4997575;28;20051;-80
2020/12/23 05:48:21;;;;;;;9.68;7.68;;;12.30;99.90;;;;;;4996585;28;20133;-81
2020/12/23 05:50:50;;;;;;;10.50;7.45;;;12.30;99.90;;;;;;4999198;28;20133;-81
2020/12/23 05:53:17;;;;;;;10.63;8.05;;;12.20;99.90;;;;;;4999854;28;20089;-80
2020/12/23 05:55:44;;;;;;;10.32;8.50;;;12.20;99.90;;;;;;5000214;28;20139;-80
2020/12/23 05:58:22;;;;;;;12.10;8.57;;;12.20;99.90;;;;;;4999763;28;20054;-80
2020/12/23 06:00:49;;;;;;;13.75;9.18;;;12.20;99.90;;;;;;5000052;28;20109;-80
2020/12/23 06:03:20;;;;;;;13.32;10.05;;;12.10;99.90;;;;;;4998761;28;20106;-80
2020/12/23 06:05:57;;;;;;;13.20;9.30;;;12.00;99.90;;;;;;4999492;28;20058;-81
2020/12/23 06:08:31;;;;;;;17.55;10.88;;;12.10;99.90;;;;;;5000911;28;20438;-80
2020/12/23 06:11:27;;;;;;;14.85;10.43;;;12.00;99.90;;;;;;5000361;28;20082;-80
2020/12/23 06:14:09;;;;;;;14.45;11.10;;;12.00;99.90;;;;;;5001229;28;20117;-80
2020/12/23 06:16:37;;;;;;;14.30;10.95;;;11.90;99.90;;;;;;4999415;28;20070;-80
2020/12/23 06:19:05;;;;;;;13.13;10.75;;;11.90;99.90;;;;;;4999286;28;20209;-80
2020/12/23 06:21:33;;;;;;;14.13;11.60;;;11.90;99.90;;;;;;5000594;28;20078;-80
2020/12/23 06:24:07;;;;;;;15.95;12.05;;;11.90;99.90;;;;;;4999388;28;20133;-80
2020/12/23 06:26:36;;;;;;;15.18;11.98;;;11.80;99.90;;;;;;4999895;28;20093;-80
2020/12/23 06:29:04;;;;;;;13.48;12.02;;;11.90;99.90;;;;;;5000097;28;20093;-79
2020/12/23 06:31:36;;;;;;;17.38;12.20;;;11.90;99.90;;;;;;4996797;28;20054;-78
2020/12/23 06:34:04;;;;;;;16.10;12.23;;;11.80;99.90;;;;;;4999551;28;20077;-80
2020/12/23 06:36:32;;;;;;;15.63;12.57;;;11.70;99.90;;;;;;4997876;28;20325;-81
2020/12/23 06:39:21;;;;;;;16.02;12.45;;;11.60;99.90;;;;;;5002328;28;20089;-80
2020/12/23 06:41:48;;;;;;;17.65;12.70;;;11.60;99.90;;;;;;4977368;28;646344;-80
2020/12/23 06:44:15;;;;;;;13.82;11.35;;;11.60;99.90;;;;;;5000631;28;20105;-80
2020/12/23 06:47:08;;;;;;;14.73;11.25;;;11.60;99.90;;;;;;4999981;28;20085;-81
2020/12/23 06:49:36;;;;;;;15.43;11.02;;;11.70;99.90;;;;;;5000427;28;20050;-81
2020/12/23 06:52:31;;;;;;;14.50;11.23;;;11.70;99.90;;;;;;4999157;28;20073;-81
2020/12/23 06:55:00;;;;;;;14.07;11.50;;;11.80;99.90;;;;;;5000186;28;20058;-81
2020/12/23 06:57:50;;;;;;;15.57;11.15;;;11.80;99.90;;;;;;5000432;28;20057;-81
2020/12/23 07:00:42;;;;;;;17.95;11.07;;;11.70;99.90;;;;;;5000398;28;20047;-80
2020/12/23 07:03:10;;;;;;;18.25;12.52;;;11.70;99.90;;;;;;4998679;28;20105;-81
2020/12/23 07:05:44;;;;;;;14.35;11.10;;;11.70;99.90;;;;;;5000823;28;20074;-82
2020/12/23 07:08:15;;;;;;;19.52;11.38;;;11.70;99.90;;;;;;4998986;28;20054;-81
2020/12/23 07:10:44;;;;;;;14.48;11.02;;;11.70;99.90;;;;;;4999945;28;20050;-80
2020/12/23 07:13:13;;;;;;;13.82;10.77;;;11.80;99.90;;;;;;4999370;28;20054;-81
2020/12/23 07:15:42;;;;;;;15.50;10.80;;;11.80;99.90;;;;;;5000617;28;20054;-81
2020/12/23 07:18:09;;;;;;;20.98;11.30;;;11.80;99.90;;;;;;5001248;28;20089;-81
2020/12/23 07:20:40;;;;;;;18.13;11.98;;;11.90;99.90;;;;;;5001160;28;20353;-80
2020/12/23 07:23:09;;;;;;;31.02;20.00;;;11.90;99.90;;;;;;5000412;28;20154;-81
2020/12/23 07:25:38;;;;;;;16.40;10.60;;;12.00;99.90;;;;;;5001178;28;20106;-81
2020/12/23 07:28:07;;;;;;;14.90;10.13;;;12.00;99.90;;;;;;5002199;28;20077;-80
2020/12/23 07:30:36;;;;;;;15.90;10.55;;;12.00;99.90;;;;;;5010091;28;20050;-80
2020/12/23 07:33:07;;;;;;;14.73;10.85;;;12.00;99.90;;;;;;5010139;28;20061;-80
2020/12/23 07:35:34;;;;;;;19.88;11.50;;;11.90;99.90;;;;;;5009104;28;20054;-80
2020/12/23 07:38:01;;;;;;;18.20;11.40;;;11.90;99.90;;;;;;5010332;28;20074;-81
2020/12/23 07:40:29;;;;;;;17.90;12.18;;;11.80;99.90;;;;;;5009234;28;20070;-81
2020/12/23 07:42:57;;;;;;;18.25;11.27;;;11.80;99.90;;;;;;5007616;28;20054;-80
2020/12/23 07:45:25;;;;;;;16.95;12.25;;;11.90;99.90;;;;;;5007839;28;20086;-80
2020/12/23 07:47:55;;;;;;;19.15;11.60;;;12.00;99.90;;;;;;5000787;28;20046;-79
2020/12/23 07:50:22;;;;;;;18.35;11.40;;;12.00;99.90;;;;;;4997614;28;20634;-80
2020/12/23 07:52:49;;;;;;;20.42;11.68;;;12.00;99.90;;;;;;4996904;28;20129;-79
2020/12/23 07:55:17;;;;;;;20.17;11.63;;;12.00;99.90;;;;;;4997169;28;20606;-79
2020/12/23 07:57:43;;;;;;;16.65;11.55;;;12.00;99.90;;;;;;4997649;28;20133;-79
2020/12/23 08:00:12;;;;;;;18.38;12.38;;;12.00;99.90;;;;;;4985461;28;20085;-79
2020/12/23 08:02:39;;;;;;;19.38;11.80;;;12.00;99.90;;;;;;4977506;28;20122;-78
2020/12/23 08:05:06;;;;;;;17.63;11.68;;;12.00;99.90;;;;;;4977800;28;20094;-80
2020/12/23 08:07:33;;;;;;;19.83;11.55;;;12.10;99.90;;;;;;4979063;28;20047;-80
2020/12/23 08:10:07;;;;;;;18.85;10.40;;;12.10;99.90;;;;;;4978556;28;20050;-79
2020/12/23 08:12:33;;;;;;;22.30;12.20;;;12.10;99.90;;;;;;4978507;28;20054;-80
2020/12/23 08:15:00;;;;;;;17.48;11.70;;;12.00;99.90;;;;;;4979431;28;20057;-79
2020/12/23 08:17:27;;;;;;;21.73;11.63;;;12.00;99.90;;;;;;4978740;28;20138;-80
2020/12/23 08:20:05;;;;;;;16.98;11.13;;;12.00;99.90;;;;;;4979509;28;20149;-79
2020/12/23 08:22:32;;;;;;;20.73;10.77;;;12.00;99.90;;;;;;4985562;28;20078;-80
2020/12/23 08:25:10;;;;;;;18.63;10.88;;;12.00;99.90;;;;;;4984949;28;20110;-79
2020/12/23 08:27:38;;;;;;;18.65;10.95;;;12.00;99.90;;;;;;4983507;28;20082;-80
2020/12/23 08:30:07;;;;;;;18.27;10.82;;;12.00;99.90;;;;;;4979881;28;20134;-80
2020/12/23 08:32:43;;;;;;;17.92;10.65;;;11.90;99.90;;;;;;4981020;28;20097;-80
2020/12/23 08:35:11;;;;;;;15.70;9.80;;;12.00;99.90;;;;;;4980294;28;20081;-80
2020/12/23 08:37:38;;;;;;;14.50;9.82;;;12.00;99.90;;;;;;4979989;28;20097;-80
2020/12/23 08:40:07;;;;;;;15.18;10.20;;;11.90;99.90;;;;;;4980199;28;20126;-80
2020/12/23 08:42:34;;;;;;;15.75;10.50;;;11.90;99.90;;;;;;4987449;23;20066;-81
2020/12/23 08:45:01;;;;;;;19.88;10.75;;;11.90;99.90;;;;;;4964643;29;20086;-80
2020/12/23 08:47:31;;;;;;;16.63;10.50;;;11.80;99.90;;;;;;4961495;29;20087;-81
2020/12/23 08:50:00;;;;;;;18.70;10.35;;;11.80;99.90;;;;;;4942639;29;20604;-82
2020/12/23 08:53:02;;;;;;;15.20;10.25;;;11.80;99.90;;;;;;4943878;29;20087;-85
2020/12/23 08:55:29;;;;;;;17.50;10.63;;;11.80;99.90;;;;;;4944304;28;20057;-82
2020/12/23 08:58:09;;;;;;;17.65;9.93;;;11.90;99.90;;;;;;4942581;29;20056;-83
2020/12/23 09:00:36;;;;;;;15.40;9.80;;;11.90;99.90;;;;;;4943970;29;20055;-82
2020/12/23 09:03:02;;;;;;;17.88;9.45;;;12.00;99.90;;;;;;4943104;29;20071;-84
2020/12/23 09:05:31;;;;;;;16.73;9.43;;;12.00;99.90;;;;;;4943848;29;20083;-82
2020/12/23 09:08:05;;;;;;;14.05;9.10;;;12.10;99.90;;;;;;4943867;29;20113;-83
2020/12/23 09:10:31;;;;;;;14.65;10.52;;;12.10;99.90;;;;;;4943352;29;20425;-80
2020/12/23 09:13:08;;;;;;;13.63;8.93;;;12.10;99.90;;;;;;4943069;29;20477;-82
2020/12/23 09:15:35;;;;;;;13.38;8.50;;;12.10;99.90;;;;;;4943652;29;20079;-82
2020/12/23 09:18:08;;;;;;;11.70;7.85;;;12.10;99.90;;;;;;4943568;29;20083;-79
2020/12/23 09:20:37;;;;;;;9.93;8.35;;;12.10;99.90;;;;;;4943524;29;20103;-81
2020/12/23 09:23:04;;;;;;;9.77;7.70;;;12.20;99.90;;;;;;4945122;29;20052;-82
2020/12/23 09:25:31;;;;;;;13.85;12.45;;;12.20;99.90;;;;;;4945799;29;20075;-80
2020/12/23 09:28:06;;;;;;;10.63;8.45;;;12.30;99.90;;;;;;4945444;29;20052;-81
2020/12/23 09:30:38;;;;;;;11.88;7.97;;;12.40;99.90;;;;;;4944471;29;20075;-81
2020/12/23 09:33:08;;;;;;;10.32;7.82;;;12.40;99.90;;;;;;4945796;29;20047;-81
2020/12/23 09:35:36;;;;;;;11.48;8.18;;;12.50;99.90;;;;;;4949063;29;20056;-81
2020/12/23 09:38:11;;;;;;;11.57;7.63;;;12.50;99.90;;;;;;4944777;29;20138;-82
2020/12/23 09:40:40;;;;;;;12.00;7.45;;;12.50;99.90;;;;;;4944445;29;20086;-80
2020/12/23 09:43:12;;;;;;;10.13;7.38;;;12.60;99.90;;;;;;4944743;29;20060;-80
2020/12/23 09:45:38;;;;;;;16.08;6.93;;;12.60;99.90;;;;;;4942348;29;20051;-81
2020/12/23 09:48:05;;;;;;;7.63;6.45;;;12.70;99.90;;;;;;4942958;29;20094;-81
2020/12/23 09:50:32;;;;;;;8.80;7.03;;;12.70;99.90;;;;;;4942187;29;20095;-81
2020/12/23 09:52:59;;;;;;;10.50;8.07;;;12.80;99.90;;;;;;4943072;29;20083;-76
2020/12/23 09:55:25;;;;;;;11.07;7.57;;;12.90;99.90;;;;;;4951053;28;20111;-82
2020/12/23 09:57:52;;;;;;;11.35;6.97;;;12.90;99.90;;;;;;4960525;29;20167;-82
2020/12/23 10:00:19;;;;;;;11.18;6.32;;;13.00;99.90;;;;;;4960033;29;20138;-80
2020/12/23 10:02:46;;;;;;;8.52;6.35;;;13.10;99.90;;;;;;4950084;29;20142;-78
2020/12/23 10:05:14;;;;;;;8.88;5.85;;;13.20;99.90;;;;;;4959507;29;20055;-84
2020/12/23 10:07:43;;;;;;;6.80;5.40;;;13.30;99.90;;;;;;4960277;29;20098;-81
2020/12/23 10:10:10;;;;;;;8.75;5.60;;;13.30;99.90;;;;;;4958277;28;20162;-80
2020/12/23 10:12:37;;;;;;;6.80;5.25;;;13.40;99.90;;;;;;4962679;29;20075;-82
2020/12/23 10:15:04;;;;;;;8.25;5.40;;;13.40;99.90;;;;;;4960473;28;20133;-81
2020/12/23 10:17:31;;;;;;;12.23;5.40;;;13.40;99.90;;;;;;4958461;28;20503;-80
2020/12/23 10:19:57;;;;;;;9.45;5.57;;;13.40;99.90;;;;;;4958969;28;20102;-77
2020/12/23 10:22:24;;;;;;;7.05;5.65;;;13.40;99.90;;;;;;4957928;28;20130;-81
2020/12/23 10:24:50;;;;;;;7.10;5.82;;;13.40;99.90;;;;;;4960435;29;20047;-84
2020/12/23 10:27:17;;;;;;;8.75;6.00;;;13.40;99.90;;;;;;4957195;28;20074;-81
2020/12/23 10:29:44;;;;;;;8.95;6.57;;;13.40;99.90;;;;;;4959868;28;20078;-80
2020/12/23 10:32:10;;;;;;;8.63;6.43;;;13.30;99.90;;;;;;4958359;28;20131;-77
2020/12/23 10:34:36;;;;;;;10.02;7.13;;;13.30;99.90;;;;;;4960968;29;20094;-82
2020/12/23 10:37:03;;;;;;;8.00;6.68;;;13.20;99.90;;;;;;4960716;29;20081;-78
2020/12/23 10:39:29;;;;;;;19.77;11.57;;;13.20;99.90;;;;;;4957048;29;20127;-78
2020/12/23 10:41:56;;;;;;;11.20;6.13;;;13.20;99.90;;;;;;4956379;28;20058;-81
2020/12/23 10:44:24;;;;;;;9.98;6.53;;;13.10;99.90;;;;;;4962320;29;20089;-78
2020/12/23 10:46:54;;;;;;;11.98;6.75;;;13.10;99.90;;;;;;4965537;29;20047;-79
2020/12/23 10:49:21;;;;;;;11.52;6.55;;;13.10;99.90;;;;;;4964400;29;20094;-79
2020/12/23 10:51:51;;;;;;;12.15;6.90;;;13.10;99.90;;;;;;4960726;28;20135;-80
2020/12/23 10:54:18;;;;;;;10.95;6.93;;;13.00;99.90;;;;;;4964669;29;20534;-82
2020/12/23 10:56:45;;;;;;;10.30;8.13;;;13.10;99.90;;;;;;4963315;29;20130;-80
2020/12/23 10:59:11;;;;;;;8.75;6.50;;;13.00;99.90;;;;;;4962651;28;20071;-78
2020/12/23 11:01:39;;;;;;;10.77;7.60;;;13.00;99.90;;;;;;4959004;28;20079;-82
2020/12/23 11:04:06;;;;;;;9.02;7.25;;;13.00;99.90;;;;;;4961115;29;20528;-82
2020/12/23 11:06:33;;;;;;;11.18;7.70;;;13.00;99.90;;;;;;4960185;29;20058;-80
2020/12/23 11:08:59;;;;;;;11.55;9.27;;;12.90;99.90;;;;;;4960075;29;20111;-81
2020/12/23 11:11:25;;;;;;;14.55;9.65;;;12.90;99.90;;;;;;4958285;28;20047;-81
2020/12/23 11:13:52;;;;;;;9.73;7.40;;;12.90;99.90;;;;;;4957266;29;20614;-81
2020/12/23 11:16:19;;;;;;;10.82;5.50;;;13.00;99.90;;;;;;4955814;29;20107;-82
2020/12/23 11:18:47;;;;;;;9.13;5.13;;;13.00;99.90;;;;;;4957013;29;20078;-82
2020/12/23 11:21:14;;;;;;;6.88;5.00;;;12.90;99.90;;;;;;4957208;28;20079;-81
2020/12/23 11:23:41;;;;;;;9.75;5.32;;;12.90;99.90;;;;;;4961420;28;20130;-82
2020/12/23 11:26:14;;;;;;;12.65;5.57;;;13.00;99.90;;;;;;4959805;29;20098;-79
2020/12/23 11:28:41;;;;;;;10.80;6.55;;;12.90;99.90;;;;;;4961684;28;20046;-85
2020/12/23 11:31:08;;;;;;;15.32;8.25;;;12.80;99.90;;;;;;4958450;28;20078;-83
2020/12/23 11:33:35;;;;;;;14.02;8.95;;;12.80;99.90;;;;;;4962643;29;20804;-80
2020/12/23 11:36:02;;;;;;;21.25;10.55;;;12.80;99.90;;;;;;4963816;29;20494;-80
2020/12/23 11:38:28;;;;;;;16.08;9.65;;;12.80;99.90;;;;;;4960057;29;20149;-83
2020/12/23 11:40:55;;;;;;;16.73;9.80;;;12.80;99.90;;;;;;4960657;28;20093;-79
2020/12/23 11:43:21;;;;;;;16.08;9.95;;;12.80;99.90;;;;;;4960148;28;20424;-81
2020/12/23 11:45:47;;;;;;;14.20;11.50;;;12.80;99.90;;;;;;4943434;29;20138;-82
2020/12/23 11:48:14;;;;;;;13.18;9.32;;;12.80;99.90;;;;;;4944118;29;20108;-83
2020/12/23 11:50:40;;;;;;;13.38;9.77;;;12.90;99.90;;;;;;4944313;29;20052;-82
2020/12/23 11:53:08;;;;;;;14.35;9.45;;;12.90;99.90;;;;;;4941925;29;20083;-82
2020/12/23 11:55:34;;;;;;;13.20;9.07;;;12.90;99.90;;;;;;4949570;29;20050;-82
2020/12/23 11:58:00;;;;;;;13.20;8.75;;;12.90;99.90;;;;;;4963100;29;20086;-83
2020/12/23 12:00:27;;;;;;;14.02;10.27;;;13.00;99.90;;;;;;4961720;28;20079;-81
2020/12/23 12:02:53;;;;;;;16.48;10.35;;;13.00;99.90;;;;;;4961533;28;20415;-81
2020/12/23 12:05:19;;;;;;;13.02;9.93;;;13.00;99.90;;;;;;4960977;28;20138;-84
2020/12/23 12:07:46;;;;;;;16.55;9.90;;;13.00;99.90;;;;;;4964156;28;20075;-83
2020/12/23 12:10:13;;;;;;;14.90;9.55;;;13.00;99.90;;;;;;4962964;28;20152;-83
2020/12/23 12:12:39;;;;;;;15.50;9.95;;;13.10;99.90;;;;;;4963151;28;20182;-82
2020/12/23 12:15:06;;;;;;;13.40;10.00;;;13.10;99.90;;;;;;4956391;28;20087;-82
2020/12/23 12:17:32;;;;;;;13.52;9.90;;;13.10;99.90;;;;;;4955177;28;20043;-81
2020/12/23 12:19:59;;;;;;;16.05;10.25;;;13.10;99.90;;;;;;4955408;28;20063;-82
2020/12/23 12:22:27;;;;;;;19.20;12.52;;;13.10;99.90;;;;;;4953293;28;20123;-80
2020/12/23 12:24:53;;;;;;;14.93;10.02;;;13.10;99.90;;;;;;4951544;28;20055;-82
2020/12/23 12:27:20;;;;;;;14.38;9.30;;;13.10;99.90;;;;;;4954201;28;20171;-81
2020/12/23 12:29:47;;;;;;;14.32;10.30;;;13.10;99.90;;;;;;4962998;28;20106;-81
2020/12/23 12:32:14;;;;;;;16.17;9.77;;;13.00;99.90;;;;;;4966861;28;20083;-82
2020/12/23 12:34:40;;;;;;;17.50;10.13;;;13.00;99.90;;;;;;4963142;28;20093;-79
2020/12/23 12:37:07;;;;;;;13.68;10.30;;;13.00;99.90;;;;;;4962688;28;20090;-81
2020/12/23 12:39:33;;;;;;;14.38;9.65;;;13.00;99.90;;;;;;4964533;28;20048;-78
2020/12/23 12:42:01;;;;;;;13.50;9.75;;;13.00;99.90;;;;;;4961800;28;20079;-78